Orlando, Florida
Current Conditions -  °F | °C
As of 3:53 AM on Thursday 27 Nov 2014 (Local Time) from KORL Reporting Station
Clear Clear  
Wind Chill: 50°   Ceiling: Unl
Heat Index: 50°   Visibility: 10mi
Dew Point: 43°   Wind: 3mph
Humidity: 77%   Direction: 300°WNW
Pressure: 30.25"   Gusts: NA
Location:  28.54°N, 81.38°W
Report Text: KORL 270853Z AUTO 30003KT 10SM CLR 10/06 A3025 RMK AO2 SLP248 T01000061 51010
Loading
Personal Weather Stations






























Interactive Weather Map New forecast layout! Learn more

10-Day Weather Forecast

Advertisements
Track Severe Weather on mobile